createdAt,value
2017-03-27T00:00:06.200Z,43.40
2017-03-27T00:00:27.896Z,43.30
2017-03-27T00:00:54.460Z,43.04
2017-03-27T00:01:16.161Z,43.16
2017-03-27T00:01:37.850Z,43.16
2017-03-27T00:02:04.340Z,43.34
2017-03-27T00:02:26.128Z,43.18
2017-03-27T00:02:47.829Z,43.10
2017-03-27T00:03:14.311Z,43.30
2017-03-27T00:03:36.002Z,42.96
2017-03-27T00:04:02.486Z,43.26
2017-03-27T00:04:24.179Z,43.61
2017-03-27T00:04:45.961Z,43.50
2017-03-27T00:05:12.432Z,43.37
2017-03-27T00:05:34.122Z,43.41
2017-03-27T00:05:55.818Z,43.35
2017-03-27T00:06:17.599Z,43.65
2017-03-27T00:06:39.292Z,43.50
2017-03-27T00:07:00.986Z,43.41
2017-03-27T00:07:22.684Z,43.47
2017-03-27T00:07:44.478Z,43.71
2017-03-27T00:08:06.173Z,43.67
2017-03-27T00:08:27.885Z,43.70
2017-03-27T00:08:49.576Z,43.48
2017-03-27T00:09:11.356Z,43.49
2017-03-27T00:09:37.833Z,43.42
2017-03-27T00:09:59.524Z,43.43
2017-03-27T00:10:21.359Z,43.49
2017-03-27T00:10:43.063Z,43.47
2017-03-27T00:11:04.760Z,43.47
2017-03-27T00:11:26.467Z,43.82
2017-03-27T00:11:48.250Z,44.17
2017-03-27T00:12:09.946Z,44.14
2017-03-27T00:12:41.207Z,44.00
2017-03-27T00:13:02.979Z,43.79
2017-03-27T00:13:34.230Z,44.01
2017-03-27T00:13:55.914Z,44.22
2017-03-27T00:14:17.706Z,44.06
2017-03-27T00:14:48.960Z,44.06
2017-03-27T00:15:10.658Z,43.59
2017-03-27T00:15:32.446Z,43.85
2017-03-27T00:15:54.147Z,43.88
2017-03-27T00:16:15.842Z,43.83
2017-03-27T00:16:42.390Z,44.10
2017-03-27T00:17:04.081Z,43.46
2017-03-27T00:17:25.808Z,43.70
2017-03-27T00:17:57.038Z,43.65
2017-03-27T00:18:18.821Z,43.38
2017-03-27T00:18:45.300Z,43.54
2017-03-27T00:19:06.997Z,43.77
2017-03-27T00:19:28.794Z,43.59
2017-03-27T00:19:50.502Z,43.39
2017-03-27T00:20:12.192Z,43.29
2017-03-27T00:20:33.919Z,43.35
2017-03-27T00:20:55.702Z,43.40
2017-03-27T00:21:17.396Z,43.55
2017-03-27T00:21:39.085Z,43.89
2017-03-27T00:22:00.787Z,43.73
2017-03-27T00:22:22.606Z,43.68
2017-03-27T00:22:44.303Z,43.90
2017-03-27T00:23:06.010Z,43.52
2017-03-27T00:23:37.268Z,43.79
2017-03-27T00:23:59.058Z,43.72
2017-03-27T00:24:20.767Z,43.47
2017-03-27T00:24:42.472Z,43.55
2017-03-27T00:25:04.257Z,43.65
2017-03-27T00:25:25.948Z,43.40
2017-03-27T00:25:47.690Z,43.26
2017-03-27T00:26:09.383Z,43.37
2017-03-27T00:26:40.629Z,43.74
2017-03-27T00:27:02.320Z,43.97
2017-03-27T00:27:24.023Z,43.95
2017-03-27T00:27:50.502Z,43.83
2017-03-27T00:28:12.287Z,43.65
2017-03-27T00:28:33.988Z,43.35
2017-03-27T00:28:55.697Z,43.57
2017-03-27T00:29:17.405Z,43.69
2017-03-27T00:29:48.658Z,43.78
2017-03-27T00:30:10.436Z,44.08
2017-03-27T00:30:32.147Z,44.10
2017-03-27T00:30:58.617Z,43.99
2017-03-27T00:31:20.401Z,43.78
2017-03-27T00:31:42.096Z,43.89
2017-03-27T00:32:13.345Z,43.97
2017-03-27T00:32:35.131Z,43.90
2017-03-27T00:32:56.820Z,43.84
2017-03-27T00:33:23.301Z,43.89
2017-03-27T00:33:45.092Z,43.48
2017-03-27T00:34:06.804Z,43.50
2017-03-27T00:34:28.505Z,43.50
2017-03-27T00:34:50.217Z,43.44
2017-03-27T00:35:12.006Z,43.80
2017-03-27T00:35:38.485Z,43.84
2017-03-27T00:36:00.206Z,43.73
2017-03-27T00:36:58.686Z,43.51
2017-03-27T00:37:20.378Z,43.42
2017-03-27T00:37:51.636Z,43.56
2017-03-27T00:38:13.414Z,43.67
2017-03-27T00:38:35.119Z,43.89
2017-03-27T00:38:56.820Z,43.58
2017-03-27T00:39:18.617Z,43.90
2017-03-27T00:39:40.312Z,43.66
2017-03-27T00:40:06.789Z,43.76
2017-03-27T00:40:28.487Z,43.80
2017-03-27T00:40:57.300Z,43.89
2017-03-27T00:41:18.976Z,43.92
2017-03-27T00:41:50.219Z,44.15
2017-03-27T00:42:16.780Z,43.94
2017-03-27T00:42:43.350Z,43.83
2017-03-27T00:43:05.210Z,43.75
2017-03-27T00:43:26.928Z,43.66
2017-03-27T00:43:53.407Z,43.95
2017-03-27T00:44:15.207Z,43.84
2017-03-27T00:44:36.908Z,43.95
2017-03-27T00:44:58.629Z,43.95
2017-03-27T00:45:20.322Z,43.97
2017-03-27T00:45:46.866Z,44.07
2017-03-27T00:46:08.582Z,43.60
2017-03-27T00:46:35.051Z,43.56
2017-03-27T00:46:56.797Z,43.10
2017-03-27T00:47:28.057Z,43.04
2017-03-27T00:47:49.880Z,43.05
2017-03-27T00:48:11.596Z,43.03
2017-03-27T00:49:10.015Z,42.97
2017-03-27T00:49:31.700Z,43.00
2017-03-27T00:49:53.409Z,42.84
2017-03-27T00:50:19.969Z,42.60
2017-03-27T00:50:41.689Z,42.82
2017-03-27T00:51:08.200Z,42.84
2017-03-27T00:51:29.930Z,43.21
2017-03-27T00:51:56.466Z,43.61
2017-03-27T00:52:18.159Z,43.69
2017-03-27T00:52:39.865Z,43.53
2017-03-27T00:53:06.363Z,43.14
2017-03-27T00:53:28.165Z,43.09
2017-03-27T00:53:54.659Z,43.36
2017-03-27T00:54:16.357Z,43.42
2017-03-27T00:55:14.881Z,43.34
2017-03-27T00:55:41.364Z,43.26
2017-03-27T00:56:12.614Z,43.42
2017-03-27T00:56:34.402Z,43.76
2017-03-27T00:57:32.809Z,44.04
2017-03-27T00:57:59.293Z,43.60
2017-03-27T00:58:30.562Z,44.04
2017-03-27T00:58:52.350Z,44.08
2017-03-27T00:59:18.867Z,43.64
2017-03-27T00:59:40.639Z,43.37
2017-03-27T01:00:39.280Z,43.82
2017-03-27T01:01:41.787Z,43.57
2017-03-27T01:02:03.562Z,43.54
2017-03-27T01:03:01.879Z,43.76
2017-03-27T01:04:00.278Z,43.62
2017-03-27T01:04:31.540Z,43.67
2017-03-27T01:04:53.360Z,43.48
2017-03-27T01:05:24.621Z,43.75
2017-03-27T01:05:46.336Z,43.78
2017-03-27T01:06:48.925Z,43.18
2017-03-27T01:07:10.622Z,43.49
2017-03-27T01:07:32.323Z,43.86
2017-03-27T01:07:58.882Z,44.21
2017-03-27T01:08:20.659Z,44.47
2017-03-27T01:08:42.477Z,44.47
2017-03-27T01:09:04.184Z,44.40
2017-03-27T01:09:25.878Z,44.05
2017-03-27T01:09:47.588Z,44.32
2017-03-27T01:10:14.147Z,44.54
2017-03-27T01:10:35.841Z,44.41
2017-03-27T01:11:02.311Z,44.54
2017-03-27T01:11:24.123Z,44.37
2017-03-27T01:11:50.598Z,44.57
2017-03-27T01:12:12.299Z,44.12
2017-03-27T01:12:38.864Z,43.91
2017-03-27T01:13:00.573Z,43.62
2017-03-27T01:13:27.063Z,43.74
2017-03-27T01:13:48.769Z,43.42
2017-03-27T01:14:20.275Z,43.93
2017-03-27T01:14:41.936Z,43.94
2017-03-27T01:15:03.658Z,44.24
2017-03-27T01:15:30.120Z,44.16
2017-03-27T01:15:51.905Z,44.14
2017-03-27T01:16:13.607Z,43.98
2017-03-27T01:16:35.326Z,43.88
2017-03-27T01:16:57.034Z,44.19
2017-03-27T01:17:55.437Z,44.66
2017-03-27T01:18:21.914Z,44.90
2017-03-27T01:18:43.639Z,44.77
2017-03-27T01:19:05.424Z,44.73
2017-03-27T01:19:31.915Z,44.80
2017-03-27T01:19:53.607Z,44.62
2017-03-27T01:20:20.176Z,44.56
2017-03-27T01:20:41.910Z,44.17
2017-03-27T01:21:13.173Z,44.09
2017-03-27T01:21:34.975Z,44.22
2017-03-27T01:21:56.710Z,44.13
2017-03-27T01:22:23.177Z,43.96
2017-03-27T01:22:44.959Z,43.93
2017-03-27T01:23:11.438Z,44.33
2017-03-27T01:23:33.140Z,44.37
2017-03-27T01:23:54.848Z,44.26
2017-03-27T01:24:21.405Z,43.87
2017-03-27T01:24:43.106Z,43.72
2017-03-27T01:25:09.596Z,43.41
2017-03-27T01:25:31.400Z,43.79
2017-03-27T01:26:29.809Z,44.42
2017-03-27T01:26:51.536Z,44.54
2017-03-27T01:27:49.909Z,44.36
2017-03-27T01:28:16.383Z,44.36
2017-03-27T01:29:18.964Z,44.19
2017-03-27T01:29:40.660Z,44.39
2017-03-27T01:30:02.363Z,44.59
2017-03-27T01:30:28.945Z,44.21
2017-03-27T01:30:50.639Z,44.15
2017-03-27T01:31:17.118Z,44.21
2017-03-27T01:31:38.931Z,44.08
2017-03-27T01:32:05.411Z,44.15
2017-03-27T01:32:27.155Z,44.28
2017-03-27T01:32:53.744Z,43.99
2017-03-27T01:33:15.453Z,43.82
2017-03-27T01:33:41.931Z,43.62
2017-03-27T01:34:03.721Z,43.58
2017-03-27T01:34:30.210Z,43.51
2017-03-27T01:35:01.468Z,43.57
2017-03-27T01:35:23.270Z,43.56
2017-03-27T01:35:49.750Z,43.81
2017-03-27T01:36:11.439Z,43.92
2017-03-27T01:36:38.022Z,43.68
2017-03-27T01:36:59.723Z,43.67
2017-03-27T01:37:26.192Z,43.44
2017-03-27T01:37:47.994Z,43.45
2017-03-27T01:38:14.480Z,43.54
2017-03-27T01:38:36.172Z,43.65
2017-03-27T01:39:02.758Z,43.91
2017-03-27T01:39:29.242Z,43.46
2017-03-27T01:39:50.980Z,43.36
2017-03-27T01:40:22.219Z,43.53
2017-03-27T01:40:44.015Z,43.53
2017-03-27T01:42:19.166Z,43.42
2017-03-27T01:42:45.742Z,43.16
2017-03-27T01:43:48.850Z,43.49
2017-03-27T01:44:47.272Z,43.88
2017-03-27T01:45:49.871Z,43.53
2017-03-27T01:46:16.345Z,43.62
2017-03-27T01:46:42.841Z,43.63
2017-03-27T01:47:04.640Z,43.50
2017-03-27T01:47:26.349Z,43.72
2017-03-27T01:47:48.060Z,43.56
2017-03-27T01:48:09.763Z,43.60
2017-03-27T01:48:36.253Z,43.86
2017-03-27T01:48:58.051Z,43.76
2017-03-27T01:49:24.629Z,43.80
2017-03-27T01:49:46.414Z,43.82
2017-03-27T01:50:13.003Z,43.93
2017-03-27T01:50:34.787Z,43.66
2017-03-27T01:50:56.597Z,43.55
2017-03-27T01:51:18.307Z,43.46
2017-03-27T01:51:40.098Z,43.36
2017-03-27T01:52:01.893Z,43.46
2017-03-27T01:52:33.156Z,43.78
2017-03-27T01:52:54.938Z,43.78
2017-03-27T01:53:57.528Z,43.51
2017-03-27T01:54:19.231Z,43.68
2017-03-27T01:55:17.739Z,43.44
2017-03-27T01:55:39.525Z,43.87
2017-03-27T01:56:06.069Z,43.73
2017-03-27T01:56:27.787Z,43.67
2017-03-27T01:56:59.055Z,43.75
2017-03-27T01:57:20.852Z,43.69
2017-03-27T01:57:52.116Z,43.37
2017-03-27T01:58:13.841Z,43.43
2017-03-27T01:58:45.089Z,43.54
2017-03-27T01:59:06.856Z,43.59
2017-03-27T01:59:38.143Z,43.66
2017-03-27T01:59:59.900Z,43.84
2017-03-27T02:01:02.493Z,44.33
2017-03-27T02:01:24.195Z,44.17
2017-03-27T02:01:45.895Z,44.18
2017-03-27T02:02:12.458Z,44.62
2017-03-27T02:02:34.167Z,44.48
2017-03-27T02:02:55.856Z,44.44
2017-03-27T02:03:22.433Z,44.54
2017-03-27T02:03:44.133Z,44.21
2017-03-27T02:04:10.708Z,44.29
2017-03-27T02:04:32.492Z,44.59
2017-03-27T02:04:54.272Z,44.49
2017-03-27T02:05:20.830Z,44.67
2017-03-27T02:05:42.528Z,44.62
2017-03-27T02:06:09.003Z,44.46
2017-03-27T02:06:30.693Z,44.35
2017-03-27T02:06:52.483Z,44.58
2017-03-27T02:07:14.215Z,44.68
2017-03-27T02:07:35.913Z,44.48
2017-03-27T02:07:57.617Z,44.30
2017-03-27T02:08:28.866Z,44.21
2017-03-27T02:08:50.638Z,44.24
2017-03-27T02:09:12.337Z,44.21
2017-03-27T02:09:38.832Z,44.02
2017-03-27T02:10:00.614Z,43.80
2017-03-27T02:10:27.086Z,43.72
2017-03-27T02:10:48.781Z,44.07
2017-03-27T02:11:15.369Z,44.08
2017-03-27T02:11:37.089Z,43.89
2017-03-27T02:12:03.566Z,43.77
2017-03-27T02:12:25.302Z,43.92
2017-03-27T02:12:51.869Z,43.83
2017-03-27T02:13:13.565Z,43.95
2017-03-27T02:13:44.837Z,43.84
2017-03-27T02:14:06.638Z,43.87
2017-03-27T02:15:04.926Z,43.55
2017-03-27T02:15:36.180Z,43.75
2017-03-27T02:15:58.064Z,43.76
2017-03-27T02:16:19.853Z,44.17
2017-03-27T02:16:46.330Z,44.15
2017-03-27T02:17:08.023Z,44.16
2017-03-27T02:18:10.601Z,44.18
2017-03-27T02:19:08.849Z,43.84
2017-03-27T02:19:30.639Z,43.69
2017-03-27T02:19:52.347Z,43.71
2017-03-27T02:20:18.831Z,43.63
2017-03-27T02:20:40.653Z,43.73
2017-03-27T02:21:07.133Z,43.82
2017-03-27T02:21:28.830Z,43.68
2017-03-27T02:21:55.382Z,44.30
2017-03-27T02:22:17.081Z,44.07
2017-03-27T02:22:48.335Z,43.69
2017-03-27T02:23:10.138Z,43.81
2017-03-27T02:23:41.431Z,43.63
2017-03-27T02:24:03.134Z,43.86
2017-03-27T02:24:24.934Z,44.05
2017-03-27T02:24:56.183Z,44.18
2017-03-27T02:25:17.886Z,44.04
2017-03-27T02:25:39.665Z,43.79
2017-03-27T02:26:10.929Z,43.79
2017-03-27T02:26:32.630Z,43.53
2017-03-27T02:26:59.182Z,43.61
2017-03-27T02:27:20.887Z,43.52
2017-03-27T02:27:47.375Z,43.41
2017-03-27T02:28:09.086Z,43.50
2017-03-27T02:28:35.647Z,43.50
2017-03-27T02:28:57.347Z,43.33
2017-03-27T02:29:23.820Z,43.35
2017-03-27T02:29:45.510Z,43.43
2017-03-27T02:30:07.286Z,43.48
2017-03-27T02:31:05.603Z,43.83
2017-03-27T02:31:32.159Z,44.16
2017-03-27T02:31:58.651Z,44.21
2017-03-27T02:32:20.339Z,43.94
2017-03-27T02:32:42.071Z,43.79
2017-03-27T02:33:08.673Z,43.81
2017-03-27T02:33:30.392Z,43.70
2017-03-27T02:33:52.101Z,43.94
2017-03-27T02:34:13.800Z,43.95
2017-03-27T02:34:35.589Z,44.01
2017-03-27T02:35:42.863Z,43.58
2017-03-27T02:36:04.655Z,43.72
2017-03-27T02:37:07.147Z,43.99
2017-03-27T02:37:28.942Z,44.08
2017-03-27T02:37:50.701Z,44.01
2017-03-27T02:38:49.100Z,44.26
2017-03-27T02:39:10.794Z,44.56
2017-03-27T02:39:42.047Z,44.72
2017-03-27T02:40:04.047Z,44.48
2017-03-27T02:40:25.752Z,44.38
2017-03-27T02:40:57.009Z,44.69
2017-03-27T02:41:18.820Z,44.44
2017-03-27T02:41:45.286Z,44.48
2017-03-27T02:42:06.985Z,44.58
2017-03-27T02:42:28.770Z,44.45
2017-03-27T02:43:00.021Z,44.17
2017-03-27T02:43:21.766Z,44.53
2017-03-27T02:43:43.556Z,44.45
2017-03-27T02:44:10.027Z,44.45
2017-03-27T02:44:31.715Z,44.50
2017-03-27T02:44:53.511Z,44.23
2017-03-27T02:45:56.019Z,44.44
2017-03-27T02:46:58.612Z,45.38
2017-03-27T02:47:56.854Z,44.83
2017-03-27T02:48:23.445Z,44.67
2017-03-27T02:49:21.747Z,44.97
2017-03-27T02:49:43.537Z,45.00
2017-03-27T02:50:05.234Z,45.22
2017-03-27T02:50:26.933Z,45.74
2017-03-27T02:50:48.625Z,45.53
2017-03-27T02:51:10.425Z,45.26
2017-03-27T02:51:37.004Z,45.25
2017-03-27T02:51:58.799Z,45.05
2017-03-27T02:52:20.623Z,45.11
2017-03-27T02:52:51.899Z,45.30
2017-03-27T02:53:13.679Z,45.17
2017-03-27T02:53:35.406Z,45.45
2017-03-27T02:54:06.661Z,45.40
2017-03-27T02:54:28.441Z,45.21
2017-03-27T02:54:50.169Z,44.94
2017-03-27T02:55:21.431Z,44.93
2017-03-27T02:55:43.206Z,44.71
2017-03-27T02:56:04.915Z,44.77
2017-03-27T02:56:31.398Z,44.76
2017-03-27T02:56:53.201Z,44.86
2017-03-27T02:57:14.897Z,44.79
2017-03-27T02:57:41.382Z,44.96
2017-03-27T02:58:03.223Z,44.91
2017-03-27T02:59:01.791Z,44.61
2017-03-27T02:59:23.580Z,44.77
2017-03-27T02:59:50.158Z,45.02
2017-03-27T03:00:11.907Z,44.87
2017-03-27T03:01:10.285Z,44.74
2017-03-27T03:01:31.979Z,45.39
2017-03-27T03:02:03.233Z,45.57
2017-03-27T03:02:25.023Z,45.79
2017-03-27T03:02:46.729Z,45.67
2017-03-27T03:03:45.137Z,45.43
2017-03-27T03:04:06.839Z,45.21
2017-03-27T03:04:28.555Z,45.22
2017-03-27T03:04:55.141Z,45.04
2017-03-27T03:05:16.851Z,45.00
2017-03-27T03:05:38.564Z,45.17
2017-03-27T03:06:00.268Z,45.27
2017-03-27T03:06:22.085Z,45.34
2017-03-27T03:06:53.335Z,45.04
2017-03-27T03:07:15.054Z,45.29
2017-03-27T03:07:46.321Z,46.30
2017-03-27T03:08:08.111Z,46.04
2017-03-27T03:08:29.810Z,46.10
2017-03-27T03:09:01.075Z,46.10
2017-03-27T03:09:22.873Z,46.25
2017-03-27T03:10:25.463Z,45.97
2017-03-27T03:10:47.183Z,45.98
2017-03-27T03:11:18.465Z,45.95
2017-03-27T03:11:40.285Z,45.85
2017-03-27T03:12:01.999Z,45.89
2017-03-27T03:12:33.261Z,46.19
2017-03-27T03:12:55.050Z,46.73
2017-03-27T03:13:16.772Z,46.60
2017-03-27T03:13:38.461Z,46.46
2017-03-27T03:14:00.195Z,46.77
2017-03-27T03:14:26.752Z,46.32
2017-03-27T03:14:48.458Z,46.46
2017-03-27T03:15:10.148Z,46.92
2017-03-27T03:15:41.399Z,46.93
2017-03-27T03:16:03.196Z,46.51
2017-03-27T03:17:10.569Z,45.94
2017-03-27T03:17:32.288Z,45.99
2017-03-27T03:18:03.536Z,46.00
2017-03-27T03:18:25.321Z,45.83
2017-03-27T03:18:47.024Z,46.36
2017-03-27T03:19:08.765Z,46.79
2017-03-27T03:19:30.459Z,46.75
2017-03-27T03:19:52.242Z,46.74
2017-03-27T03:20:13.942Z,46.62
2017-03-27T03:20:35.638Z,46.56
2017-03-27T03:20:57.318Z,46.74
2017-03-27T03:21:19.122Z,46.67
2017-03-27T03:21:40.813Z,46.41
2017-03-27T03:22:02.524Z,46.19
2017-03-27T03:22:24.223Z,46.00
2017-03-27T03:22:46.046Z,46.06
2017-03-27T03:23:44.375Z,46.21
2017-03-27T03:24:15.632Z,46.38
2017-03-27T03:24:37.435Z,46.22
2017-03-27T03:24:59.144Z,46.29
2017-03-27T03:25:20.862Z,46.49
2017-03-27T03:25:42.654Z,46.61
2017-03-27T03:26:13.919Z,46.78
2017-03-27T03:26:35.619Z,46.88
2017-03-27T03:27:02.187Z,46.42
2017-03-27T03:27:23.874Z,46.66
2017-03-27T03:27:50.349Z,46.51
2017-03-27T03:28:12.056Z,46.75
2017-03-27T03:28:38.630Z,46.72
2017-03-27T03:29:00.338Z,46.66
2017-03-27T03:29:26.810Z,46.44
2017-03-27T03:29:48.500Z,46.67
2017-03-27T03:30:15.074Z,46.50
2017-03-27T03:30:36.778Z,46.65
2017-03-27T03:30:58.469Z,46.36
2017-03-27T03:31:56.869Z,46.25
2017-03-27T03:32:28.126Z,46.18
2017-03-27T03:32:49.910Z,46.24
2017-03-27T03:33:48.188Z,46.86
2017-03-27T03:34:19.492Z,46.45
2017-03-27T03:34:41.349Z,46.18
2017-03-27T03:35:07.929Z,46.05
2017-03-27T03:35:29.702Z,46.65
2017-03-27T03:35:51.493Z,46.52
2017-03-27T03:36:58.803Z,47.15
2017-03-27T03:37:20.530Z,46.85
2017-03-27T03:37:42.256Z,46.32
2017-03-27T03:38:08.739Z,46.82
2017-03-27T03:38:30.524Z,46.88
2017-03-27T03:38:52.233Z,46.70
2017-03-27T03:39:13.946Z,46.37
2017-03-27T03:39:35.654Z,46.25
2017-03-27T03:40:43.016Z,46.26
2017-03-27T03:41:04.723Z,46.29
2017-03-27T03:42:03.089Z,46.14
2017-03-27T03:42:24.791Z,46.19
2017-03-27T03:42:51.271Z,45.92
2017-03-27T03:43:13.001Z,45.93
2017-03-27T03:43:44.241Z,46.06
2017-03-27T03:44:06.047Z,46.01
2017-03-27T03:44:27.755Z,45.87
2017-03-27T03:44:59.005Z,45.82
2017-03-27T03:45:20.800Z,45.89
2017-03-27T03:45:42.502Z,45.86
2017-03-27T03:46:04.207Z,45.80
2017-03-27T03:46:26.003Z,45.91
2017-03-27T03:46:52.469Z,45.71
2017-03-27T03:47:14.188Z,45.89
2017-03-27T03:47:35.987Z,45.88
2017-03-27T03:48:34.327Z,46.36
2017-03-27T03:48:56.152Z,46.51
2017-03-27T03:49:27.414Z,46.22
2017-03-27T03:49:49.135Z,46.35
2017-03-27T03:50:15.701Z,46.15
2017-03-27T03:50:37.411Z,46.14
2017-03-27T03:51:03.895Z,46.13
2017-03-27T03:51:25.604Z,45.82
2017-03-27T03:51:47.378Z,45.84
2017-03-27T03:52:09.117Z,45.78
2017-03-27T03:52:30.809Z,45.72
2017-03-27T03:52:52.505Z,45.63
2017-03-27T03:53:14.310Z,45.72
2017-03-27T03:53:36.012Z,45.91
2017-03-27T03:54:02.501Z,46.11
2017-03-27T03:54:24.201Z,46.39
2017-03-27T03:54:46.004Z,46.38
2017-03-27T03:55:48.509Z,46.46
2017-03-27T03:56:15.070Z,46.44
2017-03-27T03:57:13.365Z,46.70
2017-03-27T03:57:39.922Z,46.83
2017-03-27T03:58:11.170Z,47.00
2017-03-27T03:58:32.881Z,46.84
2017-03-27T03:58:59.486Z,46.70
2017-03-27T03:59:21.203Z,46.56
2017-03-27T03:59:42.914Z,46.63
2017-03-27T04:00:09.465Z,47.04
2017-03-27T04:00:31.178Z,47.41
2017-03-27T04:01:02.424Z,47.60
2017-03-27T04:01:24.217Z,47.54
2017-03-27T04:01:45.920Z,47.47
2017-03-27T04:02:07.639Z,47.49
2017-03-27T04:02:29.332Z,47.87
2017-03-27T04:02:51.137Z,48.03
2017-03-27T04:03:49.494Z,47.78
2017-03-27T04:04:16.059Z,47.78
2017-03-27T04:04:42.616Z,47.29
2017-03-27T04:05:04.428Z,47.27
2017-03-27T04:05:30.894Z,46.85
2017-03-27T04:05:52.616Z,46.96
2017-03-27T04:06:19.172Z,47.05
2017-03-27T04:06:40.872Z,47.01
2017-03-27T04:07:07.355Z,46.98
2017-03-27T04:07:29.097Z,47.04
2017-03-27T04:07:55.646Z,47.46
2017-03-27T04:08:17.358Z,47.12
2017-03-27T04:09:10.407Z,47.12
2017-03-27T04:09:32.116Z,46.76
2017-03-27T04:09:58.616Z,47.26
2017-03-27T04:10:20.336Z,47.09
2017-03-27T04:10:42.138Z,47.01
2017-03-27T04:11:03.842Z,47.24
2017-03-27T04:11:25.558Z,47.76
2017-03-27T04:12:23.990Z,47.82
2017-03-27T04:12:45.681Z,47.80
2017-03-27T04:13:07.387Z,48.14
2017-03-27T04:13:38.637Z,48.01
2017-03-27T04:14:00.339Z,48.00
2017-03-27T04:14:31.594Z,47.68
2017-03-27T04:14:53.332Z,48.09
2017-03-27T04:15:15.051Z,47.94
2017-03-27T04:15:46.305Z,47.50
2017-03-27T04:16:08.097Z,47.43
2017-03-27T04:16:29.810Z,47.38
2017-03-27T04:16:51.513Z,47.58
2017-03-27T04:17:13.221Z,47.55
2017-03-27T04:17:39.778Z,47.94
2017-03-27T04:18:01.474Z,47.79
2017-03-27T04:18:23.159Z,48.43
2017-03-27T04:18:44.875Z,48.20
2017-03-27T04:19:06.564Z,47.83
2017-03-27T04:19:28.347Z,47.68
2017-03-27T04:19:54.909Z,47.56
2017-03-27T04:20:16.692Z,47.64
2017-03-27T04:20:38.471Z,47.17
2017-03-27T04:21:00.242Z,47.32
2017-03-27T04:21:22.024Z,47.23
2017-03-27T04:21:43.817Z,47.28
2017-03-27T04:22:05.603Z,47.75
2017-03-27T04:22:27.378Z,47.98
2017-03-27T04:22:49.072Z,47.69
2017-03-27T04:23:10.944Z,47.97
2017-03-27T04:23:32.739Z,48.02
2017-03-27T04:23:59.226Z,48.00
2017-03-27T04:24:21.102Z,47.94
2017-03-27T04:24:42.806Z,47.89
2017-03-27T04:25:04.602Z,47.88
2017-03-27T04:25:26.419Z,47.81
2017-03-27T04:25:48.201Z,47.60
2017-03-27T04:26:09.901Z,47.95
2017-03-27T04:26:36.485Z,47.90
2017-03-27T04:26:58.353Z,48.01
2017-03-27T04:27:24.928Z,48.28
2017-03-27T04:27:46.631Z,48.08
2017-03-27T04:28:08.440Z,47.97
2017-03-27T04:28:30.158Z,47.84
2017-03-27T04:28:51.855Z,47.93
2017-03-27T04:29:13.560Z,47.81
2017-03-27T04:30:16.149Z,47.51
2017-03-27T04:30:37.865Z,47.39
2017-03-27T04:30:59.577Z,47.42
2017-03-27T04:31:26.049Z,47.65
2017-03-27T04:31:47.828Z,47.68
2017-03-27T04:32:09.624Z,47.62
2017-03-27T04:32:31.326Z,47.76
2017-03-27T04:32:53.113Z,47.72
2017-03-27T04:33:14.813Z,47.51
2017-03-27T04:33:36.604Z,47.65
2017-03-27T04:33:58.291Z,47.71
2017-03-27T04:34:19.979Z,47.87
2017-03-27T04:34:46.450Z,47.68
2017-03-27T04:35:08.151Z,47.74
2017-03-27T04:35:34.628Z,47.91
2017-03-27T04:35:56.456Z,47.84
2017-03-27T04:36:18.252Z,47.84
2017-03-27T04:36:44.818Z,47.94
2017-03-27T04:37:06.533Z,47.78
2017-03-27T04:37:33.075Z,48.32
2017-03-27T04:37:54.854Z,48.53
2017-03-27T04:38:16.643Z,48.67
2017-03-27T04:38:43.122Z,48.53
2017-03-27T04:39:04.991Z,48.31
2017-03-27T04:39:26.763Z,48.32
2017-03-27T04:39:48.557Z,48.62
2017-03-27T04:40:10.342Z,48.70
2017-03-27T04:40:36.943Z,48.62
2017-03-27T04:40:58.734Z,48.19
2017-03-27T04:41:20.524Z,48.39
2017-03-27T04:41:47.079Z,48.40
2017-03-27T04:42:08.767Z,48.13
2017-03-27T04:42:35.277Z,48.48
2017-03-27T04:42:57.078Z,48.25
2017-03-27T04:43:18.929Z,48.03
2017-03-27T04:43:40.627Z,48.18
2017-03-27T04:44:02.475Z,48.69
2017-03-27T04:44:33.724Z,49.04
2017-03-27T04:44:55.432Z,49.18
2017-03-27T04:45:17.230Z,49.39
2017-03-27T04:45:43.708Z,49.49
2017-03-27T04:46:05.505Z,49.13
2017-03-27T04:46:27.212Z,49.08
2017-03-27T04:46:48.996Z,49.43
2017-03-27T04:47:10.695Z,49.22
2017-03-27T04:47:32.472Z,49.54
2017-03-27T04:47:54.177Z,48.91
2017-03-27T04:48:15.969Z,49.45
2017-03-27T04:48:42.533Z,48.91
2017-03-27T04:49:04.304Z,48.72
2017-03-27T04:49:30.871Z,48.52
2017-03-27T04:49:52.645Z,48.51
2017-03-27T04:50:15.491Z,48.86
2017-03-27T04:50:41.956Z,48.80
2017-03-27T04:51:03.818Z,48.68
2017-03-27T04:51:25.612Z,48.75
2017-03-27T04:51:47.396Z,48.43
2017-03-27T04:52:09.174Z,48.29
2017-03-27T04:52:30.960Z,48.26
2017-03-27T04:52:57.523Z,48.12
2017-03-27T04:53:19.333Z,48.34
2017-03-27T04:53:50.579Z,48.18
2017-03-27T04:54:12.363Z,48.25
2017-03-27T04:54:34.264Z,48.50
2017-03-27T04:54:56.101Z,48.37
2017-03-27T04:55:17.891Z,48.45
2017-03-27T04:55:39.593Z,48.44
2017-03-27T04:56:01.410Z,48.72
2017-03-27T04:56:23.200Z,48.68
2017-03-27T04:56:45.048Z,48.48
2017-03-27T04:57:06.829Z,48.98
2017-03-27T04:57:28.617Z,49.18
2017-03-27T04:57:50.341Z,49.43
2017-03-27T04:58:49.005Z,49.18
2017-03-27T04:59:10.792Z,49.15
2017-03-27T04:59:32.495Z,49.37
2017-03-27T04:59:54.271Z,49.17
2017-03-27T05:00:15.970Z,48.96
2017-03-27T05:00:42.449Z,49.08
2017-03-27T05:01:04.243Z,49.11
2017-03-27T05:01:30.809Z,48.84
2017-03-27T05:01:52.605Z,48.82
2017-03-27T05:02:19.067Z,48.67
2017-03-27T05:02:40.855Z,48.71
2017-03-27T05:03:02.560Z,48.65
2017-03-27T05:03:24.355Z,48.76
2017-03-27T05:03:46.168Z,48.94
2017-03-27T05:04:07.993Z,49.36
2017-03-27T05:04:34.559Z,49.16
2017-03-27T05:04:56.257Z,49.37
2017-03-27T05:05:17.961Z,49.36
2017-03-27T05:05:39.656Z,49.08
2017-03-27T05:06:01.435Z,49.13
2017-03-27T05:07:02.586Z,49.38
2017-03-27T05:07:24.388Z,49.43
2017-03-27T05:07:46.092Z,49.45
2017-03-27T05:08:07.793Z,49.69
2017-03-27T05:08:29.486Z,49.67
2017-03-27T05:09:00.751Z,49.67
2017-03-27T05:09:22.529Z,49.69
2017-03-27T05:09:44.246Z,49.52
2017-03-27T05:10:10.706Z,49.04
2017-03-27T05:10:32.408Z,49.18
2017-03-27T05:10:58.887Z,48.97
2017-03-27T05:11:20.586Z,49.01
2017-03-27T05:11:42.385Z,49.41
2017-03-27T05:12:08.850Z,49.32
2017-03-27T05:12:30.557Z,49.30
2017-03-27T05:12:52.249Z,49.34
2017-03-27T05:13:18.823Z,49.09
2017-03-27T05:13:40.511Z,49.10
2017-03-27T05:14:06.979Z,49.13
2017-03-27T05:14:28.665Z,48.84
2017-03-27T05:14:50.452Z,48.87
2017-03-27T05:15:16.933Z,49.34
2017-03-27T05:15:38.621Z,49.58
2017-03-27T05:16:00.321Z,49.86
2017-03-27T05:16:26.910Z,50.05
2017-03-27T05:16:48.609Z,50.57
2017-03-27T05:17:10.324Z,50.50
2017-03-27T05:17:36.894Z,49.99
2017-03-27T05:17:58.587Z,50.05
2017-03-27T05:18:20.294Z,50.16
2017-03-27T05:18:42.020Z,50.85
2017-03-27T05:19:06.517Z,50.77
2017-03-27T05:19:33.002Z,51.18
2017-03-27T05:19:54.707Z,50.71
2017-03-27T05:20:26.091Z,50.27
2017-03-27T05:20:47.727Z,50.39
2017-03-27T05:21:09.437Z,49.94
2017-03-27T05:21:35.904Z,49.62
2017-03-27T05:21:57.694Z,49.27
2017-03-27T05:22:28.948Z,49.34
2017-03-27T05:22:55.518Z,49.68
2017-03-27T05:23:26.789Z,49.85
2017-03-27T05:23:48.673Z,49.86
2017-03-27T05:24:10.475Z,49.82
2017-03-27T05:25:08.857Z,49.48
2017-03-27T05:25:30.629Z,49.54
2017-03-27T05:25:52.436Z,50.05
2017-03-27T05:26:14.130Z,50.03
2017-03-27T05:26:35.936Z,50.00
2017-03-27T05:26:57.724Z,49.66
2017-03-27T05:27:24.213Z,49.72
2017-03-27T05:27:46.001Z,50.06
2017-03-27T05:28:12.579Z,49.93
2017-03-27T05:28:34.369Z,50.35
2017-03-27T05:28:56.139Z,50.12
2017-03-27T05:29:17.937Z,50.47
2017-03-27T05:32:01.666Z,50.02
2017-03-27T05:33:35.554Z,50.02
2017-03-27T05:34:03.224Z,49.78
2017-03-27T05:34:35.109Z,49.63
2017-03-27T05:35:00.029Z,49.95
2017-03-27T05:35:26.697Z,49.79
2017-03-27T05:36:37.752Z,49.67
2017-03-27T05:37:04.515Z,49.87
2017-03-27T05:37:58.766Z,50.08
2017-03-27T05:39:41.071Z,50.91
2017-03-27T05:40:02.968Z,51.25
2017-03-27T05:40:24.834Z,51.03
2017-03-27T05:40:55.168Z,50.48
2017-03-27T05:41:29.613Z,50.23
2017-03-27T05:41:55.245Z,49.94
2017-03-27T05:42:17.177Z,49.61
2017-03-27T05:42:39.049Z,49.20
2017-03-27T05:43:13.209Z,49.72